Terminal Aerodrome Forecast
Issued by NWS

Home | Current Version | Previous Version | Text Only | Print | Product List | Glossary On
Versions: 1 2 3 4 5 6 7 8 9 10 11 12 13 14 15 16
000
FTUS45 KABQ 310500 RRA
TAFFMN
TAF
KFMN 310543Z 3106/0106 03009KT 6SM -RASN BR BKN015 OVC025
      TEMPO 3108/3112 4SM -RASN SCT005 OVC010
     FM311400 09006KT 6SM -RA BR SCT010 OVC015
     FM312000 09006KT P6SM VCSH OVC030
     FM010100 29007KT P6SM BKN050=

USA.gov is the U.S. government's official web portal to all federal, state and local government web resources and services.